sensor_id;sensor_type;location;lat;lon;timestamp;pressure;altitude;pressure_sealevel;temperature;humidity
67840;BME280;54636;51.684;5.142;2022-12-07T00:00:25;101916.19;;;2.38;100.00
67840;BME280;54636;51.684;5.142;2022-12-07T00:02:50;101920.84;;;2.30;100.00
67840;BME280;54636;51.684;5.142;2022-12-07T00:05:16;101931.13;;;2.36;100.00
67840;BME280;54636;51.684;5.142;2022-12-07T00:07:41;101922.72;;;2.34;100.00
67840;BME280;54636;51.684;5.142;2022-12-07T00:10:07;101926.16;;;2.34;100.00
67840;BME280;54636;51.684;5.142;2022-12-07T00:12:32;101927.72;;;2.31;100.00
67840;BME280;54636;51.684;5.142;2022-12-07T00:14:57;101883.88;;;2.08;100.00
67840;BME280;54636;51.684;5.142;2022-12-07T00:17:23;101893.81;;;2.11;100.00
67840;BME280;54636;51.684;5.142;2022-12-07T00:19:48;101899.91;;;2.11;100.00
67840;BME280;54636;51.684;5.142;2022-12-07T00:22:13;101897.25;;;2.11;100.00
67840;BME280;54636;51.684;5.142;2022-12-07T00:24:39;101915.56;;;2.20;100.00
67840;BME280;54636;51.684;5.142;2022-12-07T00:27:04;101883.56;;;1.98;100.00
67840;BME280;54636;51.684;5.142;2022-12-07T00:29:29;101905.69;;;2.10;100.00
67840;BME280;54636;51.684;5.142;2022-12-07T00:31:54;101893.91;;;1.96;100.00
67840;BME280;54636;51.684;5.142;2022-12-07T00:34:21;101888.59;;;1.93;100.00
67840;BME280;54636;51.684;5.142;2022-12-07T00:36:46;101901.91;;;2.00;100.00
67840;BME280;54636;51.684;5.142;2022-12-07T00:39:12;101890.19;;;1.87;100.00
67840;BME280;54636;51.684;5.142;2022-12-07T00:41:38;101899.25;;;2.00;100.00
67840;BME280;54636;51.684;5.142;2022-12-07T00:44:03;101904.19;;;2.05;100.00
67840;BME280;54636;51.684;5.142;2022-12-07T00:46:29;101885.06;;;1.99;100.00
67840;BME280;54636;51.684;5.142;2022-12-07T00:48:55;101893.03;;;2.10;100.00
67840;BME280;54636;51.684;5.142;2022-12-07T00:51:22;101903.25;;;2.26;100.00
67840;BME280;54636;51.684;5.142;2022-12-07T00:53:48;101908.13;;;2.38;100.00
67840;BME280;54636;51.684;5.142;2022-12-07T00:56:22;101905.75;;;2.47;100.00
67840;BME280;54636;51.684;5.142;2022-12-07T00:58:53;101891.25;;;2.41;100.00
67840;BME280;54636;51.684;5.142;2022-12-07T01:01:19;101895.63;;;2.62;100.00
67840;BME280;54636;51.684;5.142;2022-12-07T01:03:44;101895.16;;;2.71;100.00
67840;BME280;54636;51.684;5.142;2022-12-07T01:06:14;101880.66;;;2.64;100.00
67840;BME280;54636;51.684;5.142;2022-12-07T01:08:39;101905.69;;;2.88;100.00
67840;BME280;54636;51.684;5.142;2022-12-07T01:11:07;101893.88;;;2.82;100.00
67840;BME280;54636;51.684;5.142;2022-12-07T01:13:35;101896.88;;;2.88;100.00
67840;BME280;54636;51.684;5.142;2022-12-07T01:16:03;101893.09;;;2.85;100.00
67840;BME280;54636;51.684;5.142;2022-12-07T01:18:30;101855.31;;;2.69;100.00
67840;BME280;54636;51.684;5.142;2022-12-07T01:21:01;101906.28;;;3.07;100.00
67840;BME280;54636;51.684;5.142;2022-12-07T01:23:27;101882.28;;;2.92;100.00
67840;BME280;54636;51.684;5.142;2022-12-07T01:25:57;101886.03;;;2.98;100.00
67840;BME280;54636;51.684;5.142;2022-12-07T01:28:23;101896.66;;;3.09;100.00
67840;BME280;54636;51.684;5.142;2022-12-07T01:31:00;101883.03;;;2.93;100.00
67840;BME280;54636;51.684;5.142;2022-12-07T01:33:31;101903.31;;;2.97;100.00
67840;BME280;54636;51.684;5.142;2022-12-07T01:36:05;101901.13;;;2.85;100.00
67840;BME280;54636;51.684;5.142;2022-12-07T01:38:31;101903.84;;;2.82;100.00
67840;BME280;54636;51.684;5.142;2022-12-07T01:40:59;101878.84;;;2.58;100.00
67840;BME280;54636;51.684;5.142;2022-12-07T01:43:27;101894.81;;;2.65;100.00
67840;BME280;54636;51.684;5.142;2022-12-07T01:45:53;101893.44;;;2.53;100.00
67840;BME280;54636;51.684;5.142;2022-12-07T01:48:26;101893.50;;;2.46;100.00
67840;BME280;54636;51.684;5.142;2022-12-07T01:50:54;101893.25;;;2.30;100.00
67840;BME280;54636;51.684;5.142;2022-12-07T01:53:24;101913.09;;;2.40;100.00
67840;BME280;54636;51.684;5.142;2022-12-07T01:55:52;101899.75;;;2.33;100.00
67840;BME280;54636;51.684;5.142;2022-12-07T01:58:18;101884.59;;;2.12;100.00
67840;BME280;54636;51.684;5.142;2022-12-07T02:00:43;101906.69;;;2.26;100.00
67840;BME280;54636;51.684;5.142;2022-12-07T02:03:22;101897.50;;;2.27;100.00
67840;BME280;54636;51.684;5.142;2022-12-07T02:05:50;101902.47;;;2.29;100.00
67840;BME280;54636;51.684;5.142;2022-12-07T02:08:16;101883.84;;;2.11;100.00
67840;BME280;54636;51.684;5.142;2022-12-07T02:10:42;101874.69;;;2.09;100.00
67840;BME280;54636;51.684;5.142;2022-12-07T02:13:23;101881.81;;;2.26;100.00
67840;BME280;54636;51.684;5.142;2022-12-07T02:29:49;101897.25;;;2.56;100.00
67840;BME280;54636;51.684;5.142;2022-12-07T02:32:51;101899.19;;;2.52;100.00
67840;BME280;54636;51.684;5.142;2022-12-07T02:35:30;101892.75;;;2.46;100.00
67840;BME280;54636;51.684;5.142;2022-12-07T02:38:18;101897.00;;;2.40;100.00
67840;BME280;54636;51.684;5.142;2022-12-07T02:43:19;101876.13;;;2.20;100.00
67840;BME280;54636;51.684;5.142;2022-12-07T02:45:48;101872.69;;;2.16;100.00
67840;BME280;54636;51.684;5.142;2022-12-07T02:48:17;101883.38;;;2.20;100.00
67840;BME280;54636;51.684;5.142;2022-12-07T02:50:48;101882.28;;;2.14;100.00
67840;BME280;54636;51.684;5.142;2022-12-07T02:55:54;101888.03;;;2.16;100.00
67840;BME280;54636;51.684;5.142;2022-12-07T02:59:28;101881.88;;;2.19;100.00
67840;BME280;54636;51.684;5.142;2022-12-07T03:07:00;101891.66;;;2.40;100.00
67840;BME280;54636;51.684;5.142;2022-12-07T03:09:36;101893.47;;;2.50;100.00
67840;BME280;54636;51.684;5.142;2022-12-07T03:13:18;101885.06;;;2.48;100.00
67840;BME280;54636;51.684;5.142;2022-12-07T03:15:32;101900.03;;;2.45;100.00
67840;BME280;54636;51.684;5.142;2022-12-07T03:17:59;101899.19;;;2.52;100.00
67840;BME280;54636;51.684;5.142;2022-12-07T03:20:29;101881.25;;;2.45;100.00
67840;BME280;54636;51.684;5.142;2022-12-07T03:22:54;101896.47;;;2.55;100.00
67840;BME280;54636;51.684;5.142;2022-12-07T03:25:22;101889.94;;;2.60;100.00
67840;BME280;54636;51.684;5.142;2022-12-07T03:27:57;101870.47;;;2.52;100.00
67840;BME280;54636;51.684;5.142;2022-12-07T03:30:28;101874.16;;;2.62;100.00
67840;BME280;54636;51.684;5.142;2022-12-07T03:33:04;101872.56;;;2.68;100.00
67840;BME280;54636;51.684;5.142;2022-12-07T03:35:37;101849.69;;;2.60;100.00
67840;BME280;54636;51.684;5.142;2022-12-07T03:38:27;101875.13;;;2.79;100.00
67840;BME280;54636;51.684;5.142;2022-12-07T03:41:00;101878.50;;;2.86;100.00
67840;BME280;54636;51.684;5.142;2022-12-07T03:43:29;101855.59;;;2.78;100.00
67840;BME280;54636;51.684;5.142;2022-12-07T03:51:39;101866.84;;;3.00;100.00
67840;BME280;54636;51.684;5.142;2022-12-07T03:54:23;101863.81;;;2.98;100.00
67840;BME280;54636;51.684;5.142;2022-12-07T03:56:51;101865.38;;;2.95;100.00
67840;BME280;54636;51.684;5.142;2022-12-07T03:59:18;101864.28;;;2.89;100.00
67840;BME280;54636;51.684;5.142;2022-12-07T04:01:45;101875.63;;;3.04;100.00
67840;BME280;54636;51.684;5.142;2022-12-07T04:04:17;101866.44;;;3.02;100.00
67840;BME280;54636;51.684;5.142;2022-12-07T04:06:42;101855.81;;;2.94;100.00
67840;BME280;54636;51.684;5.142;2022-12-07T04:09:07;101857.38;;;2.92;100.00
67840;BME280;54636;51.684;5.142;2022-12-07T04:11:33;101882.97;;;3.00;100.00
67840;BME280;54636;51.684;5.142;2022-12-07T04:13:58;101879.56;;;2.96;100.00
67840;BME280;54636;51.684;5.142;2022-12-07T04:16:42;101883.34;;;2.98;100.00
67840;BME280;54636;51.684;5.142;2022-12-07T04:19:07;101879.47;;;3.03;100.00
67840;BME280;54636;51.684;5.142;2022-12-07T04:21:33;101860.81;;;2.92;100.00
67840;BME280;54636;51.684;5.142;2022-12-07T04:23:58;101872.19;;;3.04;100.00
67840;BME280;54636;51.684;5.142;2022-12-07T04:26:23;101880.72;;;2.95;100.00
67840;BME280;54636;51.684;5.142;2022-12-07T04:28:49;101876.53;;;2.90;100.00
67840;BME280;54636;51.684;5.142;2022-12-07T04:31:14;101860.25;;;2.74;100.00
67840;BME280;54636;51.684;5.142;2022-12-07T04:33:39;101853.84;;;2.64;100.00
67840;BME280;54636;51.684;5.142;2022-12-07T04:36:05;101845.19;;;2.50;100.00
67840;BME280;54636;51.684;5.142;2022-12-07T04:38:30;101865.78;;;2.60;100.00
67840;BME280;54636;51.684;5.142;2022-12-07T04:40:56;101875.44;;;2.54;100.00
67840;BME280;54636;51.684;5.142;2022-12-07T04:43:21;101841.09;;;2.38;100.00
67840;BME280;54636;51.684;5.142;2022-12-07T04:45:48;101841.09;;;2.38;100.00
67840;BME280;54636;51.684;5.142;2022-12-07T04:48:14;101838.09;;;2.33;100.00
67840;BME280;54636;51.684;5.142;2022-12-07T04:50:39;101845.66;;;2.41;100.00
67840;BME280;54636;51.684;5.142;2022-12-07T04:53:05;101828.94;;;2.30;100.00
67840;BME280;54636;51.684;5.142;2022-12-07T04:55:30;101855.56;;;2.48;100.00
67840;BME280;54636;51.684;5.142;2022-12-07T04:57:55;101853.25;;;2.50;100.00
67840;BME280;54636;51.684;5.142;2022-12-07T05:00:21;101831.50;;;2.41;100.00
67840;BME280;54636;51.684;5.142;2022-12-07T05:02:46;101831.47;;;2.44;100.00
67840;BME280;54636;51.684;5.142;2022-12-07T05:05:11;101822.72;;;2.37;100.00
67840;BME280;54636;51.684;5.142;2022-12-07T05:07:37;101829.91;;;2.47;100.00
67840;BME280;54636;51.684;5.142;2022-12-07T05:10:02;101817.28;;;2.44;100.00
67840;BME280;54636;51.684;5.142;2022-12-07T05:12:27;101846.25;;;2.59;100.00
67840;BME280;54636;51.684;5.142;2022-12-07T05:14:53;101796.72;;;2.34;100.00
67840;BME280;54636;51.684;5.142;2022-12-07T05:17:18;101823.47;;;2.41;100.00
67840;BME280;54636;51.684;5.142;2022-12-07T05:19:43;101839.91;;;2.43;100.00
67840;BME280;54636;51.684;5.142;2022-12-07T05:22:09;101832.34;;;2.34;100.00
67840;BME280;54636;51.684;5.142;2022-12-07T05:24:34;101839.25;;;2.31;100.00
67840;BME280;54636;51.684;5.142;2022-12-07T05:27:00;101844.69;;;2.24;100.00
67840;BME280;54636;51.684;5.142;2022-12-07T05:29:25;101845.88;;;2.20;100.00
67840;BME280;54636;51.684;5.142;2022-12-07T05:31:50;101833.00;;;2.01;100.00
67840;BME280;54636;51.684;5.142;2022-12-07T05:34:16;101822.41;;;1.90;100.00
67840;BME280;54636;51.684;5.142;2022-12-07T05:36:41;101842.97;;;2.00;100.00
67840;BME280;54636;51.684;5.142;2022-12-07T05:39:08;101837.75;;;1.86;100.00
67840;BME280;54636;51.684;5.142;2022-12-07T05:41:33;101845.41;;;1.87;100.00
67840;BME280;54636;51.684;5.142;2022-12-07T05:44:17;101830.94;;;1.74;100.00
67840;BME280;54636;51.684;5.142;2022-12-07T05:46:42;101843.91;;;1.79;100.00
67840;BME280;54636;51.684;5.142;2022-12-07T05:49:08;101826.03;;;1.65;100.00
67840;BME280;54636;51.684;5.142;2022-12-07T05:51:33;101848.47;;;1.86;100.00
67840;BME280;54636;51.684;5.142;2022-12-07T05:53:58;101850.72;;;1.91;100.00
67840;BME280;54636;51.684;5.142;2022-12-07T05:56:24;101858.31;;;1.96;100.00
67840;BME280;54636;51.684;5.142;2022-12-07T05:58:51;101817.84;;;1.87;100.00
67840;BME280;54636;51.684;5.142;2022-12-07T06:01:35;101823.91;;;1.94;100.00
67840;BME280;54636;51.684;5.142;2022-12-07T06:04:01;101826.41;;;2.12;100.00
67840;BME280;54636;51.684;5.142;2022-12-07T06:06:26;101841.25;;;2.20;100.00
67840;BME280;54636;51.684;5.142;2022-12-07T06:08:51;101837.44;;;2.21;100.00
67840;BME280;54636;51.684;5.142;2022-12-07T06:11:17;101819.88;;;2.13;100.00
67840;BME280;54636;51.684;5.142;2022-12-07T06:14:01;101812.25;;;2.12;100.00
67840;BME280;54636;51.684;5.142;2022-12-07T06:16:26;101834.31;;;2.26;100.00
67840;BME280;54636;51.684;5.142;2022-12-07T06:18:51;101827.50;;;2.18;100.00
67840;BME280;54636;51.684;5.142;2022-12-07T06:21:17;101825.38;;;1.99;100.00
67840;BME280;54636;51.684;5.142;2022-12-07T06:23:42;101810.19;;;1.85;100.00
67840;BME280;54636;51.684;5.142;2022-12-07T06:26:08;101840.38;;;1.93;100.00
67840;BME280;54636;51.684;5.142;2022-12-07T06:28:33;101824.03;;;1.77;100.00
67840;BME280;54636;51.684;5.142;2022-12-07T06:31:02;101820.69;;;1.65;100.00
67840;BME280;54636;51.684;5.142;2022-12-07T06:33:28;101841.28;;;1.72;100.00
67840;BME280;54636;51.684;5.142;2022-12-07T06:35:54;101840.56;;;1.68;100.00
67840;BME280;54636;51.684;5.142;2022-12-07T06:38:19;101827.97;;;1.61;100.00
67840;BME280;54636;51.684;5.142;2022-12-07T06:40:45;101836.00;;;1.65;100.00
67840;BME280;54636;51.684;5.142;2022-12-07T06:43:10;101847.41;;;1.73;100.00
67840;BME280;54636;51.684;5.142;2022-12-07T06:45:36;101829.13;;;1.60;100.00
67840;BME280;54636;51.684;5.142;2022-12-07T06:48:01;101848.94;;;1.74;100.00
67840;BME280;54636;51.684;5.142;2022-12-07T06:50:26;101860.38;;;1.78;100.00
67840;BME280;54636;51.684;5.142;2022-12-07T06:52:52;101827.19;;;1.64;100.00
67840;BME280;54636;51.684;5.142;2022-12-07T06:55:18;101863.78;;;1.85;100.00
67840;BME280;54636;51.684;5.142;2022-12-07T06:57:43;101836.34;;;1.71;100.00
67840;BME280;54636;51.684;5.142;2022-12-07T07:00:10;101856.88;;;1.88;100.00
67840;BME280;54636;51.684;5.142;2022-12-07T07:02:35;101858.38;;;1.92;100.00
67840;BME280;54636;51.684;5.142;2022-12-07T07:05:01;101859.50;;;1.95;100.00
67840;BME280;54636;51.684;5.142;2022-12-07T07:07:26;101861.41;;;1.94;100.00
67840;BME280;54636;51.684;5.142;2022-12-07T07:09:52;101827.88;;;1.76;100.00
67840;BME280;54636;51.684;5.142;2022-12-07T07:12:17;101803.19;;;1.50;100.00
67840;BME280;54636;51.684;5.142;2022-12-07T07:14:42;101855.38;;;1.83;100.00
67840;BME280;54636;51.684;5.142;2022-12-07T07:17:08;101859.91;;;1.90;100.00
67840;BME280;54636;51.684;5.142;2022-12-07T07:19:34;101862.13;;;1.98;100.00
67840;BME280;54636;51.684;5.142;2022-12-07T07:21:59;101859.03;;;2.00;100.00
67840;BME280;54636;51.684;5.142;2022-12-07T07:24:24;101861.34;;;1.98;100.00
67840;BME280;54636;51.684;5.142;2022-12-07T07:26:50;101854.53;;;1.93;100.00
67840;BME280;54636;51.684;5.142;2022-12-07T07:29:15;101845.06;;;1.82;100.00
67840;BME280;54636;51.684;5.142;2022-12-07T07:31:40;101821.47;;;1.62;100.00
67840;BME280;54636;51.684;5.142;2022-12-07T07:34:06;101849.72;;;1.71;100.00
67840;BME280;54636;51.684;5.142;2022-12-07T07:36:32;101858.13;;;1.73;100.00
67840;BME280;54636;51.684;5.142;2022-12-07T07:38:57;101850.88;;;1.70;100.00
67840;BME280;54636;51.684;5.142;2022-12-07T07:41:23;101852.81;;;1.65;100.00
67840;BME280;54636;51.684;5.142;2022-12-07T07:43:48;101856.66;;;1.61;100.00
67840;BME280;54636;51.684;5.142;2022-12-07T07:46:13;101855.16;;;1.60;100.00
67840;BME280;54636;51.684;5.142;2022-12-07T07:48:39;101854.78;;;1.54;100.00
67840;BME280;54636;51.684;5.142;2022-12-07T07:51:07;101852.13;;;1.54;100.00
67840;BME280;54636;51.684;5.142;2022-12-07T07:53:33;101860.81;;;1.69;100.00
67840;BME280;54636;51.684;5.142;2022-12-07T07:55:59;101835.59;;;1.67;100.00
67840;BME280;54636;51.684;5.142;2022-12-07T07:58:24;101866.03;;;1.90;100.00
67840;BME280;54636;51.684;5.142;2022-12-07T08:00:50;101859.50;;;1.95;100.00
67840;BME280;54636;51.684;5.142;2022-12-07T08:03:16;101858.28;;;1.99;100.00
67840;BME280;54636;51.684;5.142;2022-12-07T08:05:42;101877.22;;;2.26;100.00
67840;BME280;54636;51.684;5.142;2022-12-07T08:08:07;101890.50;;;2.41;100.00
67840;BME280;54636;51.684;5.142;2022-12-07T08:10:33;101878.97;;;2.44;100.00
67840;BME280;54636;51.684;5.142;2022-12-07T08:13:00;101853.75;;;2.38;100.00
67840;BME280;54636;51.684;5.142;2022-12-07T08:15:39;101869.31;;;2.53;100.00
67840;BME280;54636;51.684;5.142;2022-12-07T08:18:06;101864.66;;;2.57;100.00
67840;BME280;54636;51.684;5.142;2022-12-07T08:20:32;101870.31;;;2.63;100.00
67840;BME280;54636;51.684;5.142;2022-12-07T08:22:58;101876.38;;;2.71;100.00
67840;BME280;54636;51.684;5.142;2022-12-07T08:25:23;101874.06;;;2.73;100.00
67840;BME280;54636;51.684;5.142;2022-12-07T08:27:50;101863.00;;;2.67;100.00
67840;BME280;54636;51.684;5.142;2022-12-07T08:30:16;101873.63;;;2.78;100.00
67840;BME280;54636;51.684;5.142;2022-12-07T08:32:44;101877.06;;;2.78;100.00
67840;BME280;54636;51.684;5.142;2022-12-07T08:35:10;101879.38;;;2.76;100.00
67840;BME280;54636;51.684;5.142;2022-12-07T08:37:35;101883.22;;;2.75;100.00
67840;BME280;54636;51.684;5.142;2022-12-07T08:40:01;101882.53;;;2.68;100.00
67840;BME280;54636;51.684;5.142;2022-12-07T08:42:27;101877.63;;;2.62;100.00
67840;BME280;54636;51.684;5.142;2022-12-07T08:44:58;101877.00;;;2.48;100.00
67840;BME280;54636;51.684;5.142;2022-12-07T08:47:23;101881.66;;;2.44;100.00
67840;BME280;54636;51.684;5.142;2022-12-07T08:49:50;101888.19;;;2.39;100.00
67840;BME280;54636;51.684;5.142;2022-12-07T08:52:17;101881.00;;;2.29;100.00
67840;BME280;54636;51.684;5.142;2022-12-07T08:54:42;101878.03;;;2.20;100.00
67840;BME280;54636;51.684;5.142;2022-12-07T08:57:09;101861.28;;;2.09;100.00
67840;BME280;54636;51.684;5.142;2022-12-07T08:59:36;101877.28;;;2.16;100.00
67840;BME280;54636;51.684;5.142;2022-12-07T09:02:03;101879.63;;;2.14;100.00
67840;BME280;54636;51.684;5.142;2022-12-07T09:04:28;101879.25;;;2.12;100.00
67840;BME280;54636;51.684;5.142;2022-12-07T09:06:54;101872.38;;;2.11;100.00
67840;BME280;54636;51.684;5.142;2022-12-07T09:09:20;101859.41;;;2.02;100.00
67840;BME280;54636;51.684;5.142;2022-12-07T09:11:45;101868.09;;;2.17;100.00
67840;BME280;54636;51.684;5.142;2022-12-07T09:14:11;101840.28;;;2.00;100.00
67840;BME280;54636;51.684;5.142;2022-12-07T09:16:37;101868.81;;;2.24;100.00
67840;BME280;54636;51.684;5.142;2022-12-07T09:19:03;101862.25;;;2.29;100.00
67840;BME280;54636;51.684;5.142;2022-12-07T09:21:28;101867.97;;;2.31;100.00
67840;BME280;54636;51.684;5.142;2022-12-07T09:23:54;101863.31;;;2.39;100.00
67840;BME280;54636;51.684;5.142;2022-12-07T09:26:19;101846.13;;;2.33;100.00
67840;BME280;54636;51.684;5.142;2022-12-07T09:28:44;101852.13;;;2.47;100.00
67840;BME280;54636;51.684;5.142;2022-12-07T09:31:10;101859.31;;;2.57;100.00
67840;BME280;54636;51.684;5.142;2022-12-07T09:33:35;101859.81;;;2.79;100.00
67840;BME280;54636;51.684;5.142;2022-12-07T09:36:01;101876.81;;;3.00;100.00
67840;BME280;54636;51.684;5.142;2022-12-07T09:38:27;101872.84;;;3.11;100.00
67840;BME280;54636;51.684;5.142;2022-12-07T09:40:55;101879.22;;;3.24;100.00
67840;BME280;54636;51.684;5.142;2022-12-07T09:43:22;101879.09;;;3.31;100.00
67840;BME280;54636;51.684;5.142;2022-12-07T09:45:51;101878.34;;;3.31;100.00
67840;BME280;54636;51.684;5.142;2022-12-07T09:48:21;101866.88;;;3.27;100.00
67840;BME280;54636;51.684;5.142;2022-12-07T09:50:49;101863.09;;;3.24;100.00
67840;BME280;54636;51.684;5.142;2022-12-07T09:53:30;101864.66;;;3.22;100.00
67840;BME280;54636;51.684;5.142;2022-12-07T09:55:58;101876.81;;;3.30;100.00
67840;BME280;54636;51.684;5.142;2022-12-07T09:58:26;101877.56;;;3.30;100.00
67840;BME280;54636;51.684;5.142;2022-12-07T10:00:59;101862.28;;;3.27;100.00
67840;BME280;54636;51.684;5.142;2022-12-07T10:03:28;101868.72;;;3.34;100.00
67840;BME280;54636;51.684;5.142;2022-12-07T10:05:54;101859.91;;;3.33;100.00
67840;BME280;54636;51.684;5.142;2022-12-07T10:08:21;101863.69;;;3.36;100.00
67840;BME280;54636;51.684;5.142;2022-12-07T10:10:51;101858.38;;;3.32;100.00
67840;BME280;54636;51.684;5.142;2022-12-07T10:13:20;101865.16;;;3.40;100.00
67840;BME280;54636;51.684;5.142;2022-12-07T10:15:56;101862.44;;;3.44;100.00
67840;BME280;54636;51.684;5.142;2022-12-07T10:18:36;101861.97;;;3.49;100.00
67840;BME280;54636;51.684;5.142;2022-12-07T10:23:35;101821.25;;;3.54;100.00
67840;BME280;54636;51.684;5.142;2022-12-07T10:26:21;101856.31;;;3.93;100.00
67840;BME280;54636;51.684;5.142;2022-12-07T10:28:47;101852.69;;;4.04;100.00
67840;BME280;54636;51.684;5.142;2022-12-07T10:31:18;101847.84;;;4.18;100.00
67840;BME280;54636;51.684;5.142;2022-12-07T10:33:56;101851.44;;;4.32;100.00
67840;BME280;54636;51.684;5.142;2022-12-07T10:36:23;101851.66;;;4.41;100.00
67840;BME280;54636;51.684;5.142;2022-12-07T10:39:11;101846.84;;;4.52;100.00
67840;BME280;54636;51.684;5.142;2022-12-07T10:41:55;101836.34;;;4.57;100.00
67840;BME280;54636;51.684;5.142;2022-12-07T10:44:30;101834.06;;;4.76;100.00
67840;BME280;54636;51.684;5.142;2022-12-07T10:47:09;101840.34;;;4.89;100.00
67840;BME280;54636;51.684;5.142;2022-12-07T10:52:32;101834.34;;;5.01;100.00
67840;BME280;54636;51.684;5.142;2022-12-07T10:55:36;101838.31;;;5.13;100.00
67840;BME280;54636;51.684;5.142;2022-12-07T10:58:21;101844.63;;;5.22;100.00
67840;BME280;54636;51.684;5.142;2022-12-07T11:06:54;101815.28;;;5.44;100.00
67840;BME280;54636;51.684;5.142;2022-12-07T11:14:55;101813.06;;;5.23;100.00
67840;BME280;54636;51.684;5.142;2022-12-07T11:17:36;101803.25;;;5.16;100.00
67840;BME280;54636;51.684;5.142;2022-12-07T11:31:17;101794.22;;;5.07;100.00
67840;BME280;54636;51.684;5.142;2022-12-07T11:34:11;101787.00;;;5.20;100.00
67840;BME280;54636;51.684;5.142;2022-12-07T11:36:43;101776.03;;;5.27;100.00
67840;BME280;54636;51.684;5.142;2022-12-07T11:41:45;101772.69;;;5.55;100.00
67840;BME280;54636;51.684;5.142;2022-12-07T11:52:45;101780.19;;;5.80;100.00
67840;BME280;54636;51.684;5.142;2022-12-07T11:58:22;101758.53;;;5.51;100.00
67840;BME280;54636;51.684;5.142;2022-12-07T12:03:36;101769.00;;;5.49;100.00
67840;BME280;54636;51.684;5.142;2022-12-07T12:06:05;101747.69;;;5.39;100.00
67840;BME280;54636;51.684;5.142;2022-12-07T12:08:36;101745.25;;;5.28;100.00
67840;BME280;54636;51.684;5.142;2022-12-07T12:20:14;101743.81;;;5.23;100.00
67840;BME280;54636;51.684;5.142;2022-12-07T12:22:46;101744.13;;;5.25;100.00
67840;BME280;54636;51.684;5.142;2022-12-07T12:25:26;101743.22;;;5.32;100.00
67840;BME280;54636;51.684;5.142;2022-12-07T12:27:55;101743.97;;;5.33;100.00
67840;BME280;54636;51.684;5.142;2022-12-07T12:30:34;101737.91;;;5.28;100.00
67840;BME280;54636;51.684;5.142;2022-12-07T12:35:39;101736.75;;;5.13;100.00
67840;BME280;54636;51.684;5.142;2022-12-07T12:38:24;101731.19;;;5.04;100.00
67840;BME280;54636;51.684;5.142;2022-12-07T12:40:50;101724.03;;;4.97;100.00
67840;BME280;54636;51.684;5.142;2022-12-07T12:43:45;101726.78;;;4.94;100.00
67840;BME280;54636;51.684;5.142;2022-12-07T12:49:13;101714.44;;;4.96;100.00
67840;BME280;54636;51.684;5.142;2022-12-07T12:51:44;101720.84;;;5.19;100.00
67840;BME280;54636;51.684;5.142;2022-12-07T12:59:26;101705.00;;;5.53;100.00
67840;BME280;54636;51.684;5.142;2022-12-07T13:01:56;101701.34;;;5.60;100.00
67840;BME280;54636;51.684;5.142;2022-12-07T13:04:40;101706.72;;;5.76;100.00
67840;BME280;54636;51.684;5.142;2022-12-07T13:15:45;101686.44;;;6.01;100.00
67840;BME280;54636;51.684;5.142;2022-12-07T13:23:52;101687.00;;;6.08;100.00
67840;BME280;54636;51.684;5.142;2022-12-07T13:26:27;101652.84;;;5.89;100.00
67840;BME280;54636;51.684;5.142;2022-12-07T13:34:35;101692.31;;;5.83;100.00
67840;BME280;54636;51.684;5.142;2022-12-07T13:37:10;101697.41;;;5.48;100.00
67840;BME280;54636;51.684;5.142;2022-12-07T13:39:45;101693.25;;;5.15;100.00
67840;BME280;54636;51.684;5.142;2022-12-07T13:42:22;101685.84;;;5.03;100.00
67840;BME280;54636;51.684;5.142;2022-12-07T13:44:49;101682.97;;;4.93;100.00
67840;BME280;54636;51.684;5.142;2022-12-07T13:49:49;101672.84;;;4.81;100.00
67840;BME280;54636;51.684;5.142;2022-12-07T13:52:24;101648.59;;;4.65;100.00
67840;BME280;54636;51.684;5.142;2022-12-07T13:57:22;101662.00;;;4.69;100.00
67840;BME280;54636;51.684;5.142;2022-12-07T13:59:49;101651.97;;;4.53;100.00
67840;BME280;54636;51.684;5.142;2022-12-07T14:02:26;101647.09;;;4.48;100.00
67840;BME280;54636;51.684;5.142;2022-12-07T14:04:51;101658.00;;;4.57;100.00
67840;BME280;54636;51.684;5.142;2022-12-07T14:07:26;101653.66;;;4.47;100.00
67840;BME280;54636;51.684;5.142;2022-12-07T14:09:57;101651.38;;;4.45;100.00
67840;BME280;54636;51.684;5.142;2022-12-07T14:12:24;101612.13;;;4.12;100.00
67840;BME280;54636;51.684;5.142;2022-12-07T14:14:50;101645.69;;;4.23;100.00
67840;BME280;54636;51.684;5.142;2022-12-07T14:17:18;101652.31;;;4.19;100.00
67840;BME280;54636;51.684;5.142;2022-12-07T14:19:50;101648.25;;;4.11;100.00
67840;BME280;54636;51.684;5.142;2022-12-07T14:22:35;101641.81;;;4.05;100.00
67840;BME280;54636;51.684;5.142;2022-12-07T14:25:15;101642.66;;;4.02;100.00
67840;BME280;54636;51.684;5.142;2022-12-07T14:27:57;101632.47;;;3.93;100.00
67840;BME280;54636;51.684;5.142;2022-12-07T14:30:26;101628.34;;;3.88;100.00
67840;BME280;54636;51.684;5.142;2022-12-07T14:33:05;101615.88;;;3.78;100.00
67840;BME280;54636;51.684;5.142;2022-12-07T14:35:31;101631.44;;;3.87;100.00
67840;BME280;54636;51.684;5.142;2022-12-07T14:37:57;101618.91;;;3.80;100.00
67840;BME280;54636;51.684;5.142;2022-12-07T14:40:25;101633.63;;;3.92;100.00
67840;BME280;54636;51.684;5.142;2022-12-07T14:43:16;101627.50;;;3.91;100.00
67840;BME280;54636;51.684;5.142;2022-12-07T14:45:42;101623.91;;;3.98;100.00
67840;BME280;54636;51.684;5.142;2022-12-07T14:48:11;101617.00;;;3.97;100.00
67840;BME280;54636;51.684;5.142;2022-12-07T14:50:41;101610.13;;;3.96;100.00
67840;BME280;54636;51.684;5.142;2022-12-07T14:53:12;101605.69;;;3.89;100.00
67840;BME280;54636;51.684;5.142;2022-12-07T14:55:38;101599.53;;;3.89;100.00
67840;BME280;54636;51.684;5.142;2022-12-07T14:58:04;101602.53;;;3.91;100.00
67840;BME280;54636;51.684;5.142;2022-12-07T15:00:29;101620.13;;;3.95;100.00